TimeCST,TemperatureF,Dew PointF,Humidity,Sea Level PressureIn,VisibilityMPH,Wind Direction,Wind SpeedMPH,Gust SpeedMPH,PrecipitationIn,Events,Conditions,WindDirDegrees,DateUTC
12:12 AM,32.0,21.2,64,30.43,10.0,NW,3.5,-,N/A,,Clear,320,2012-11-16 06:12:00
12:32 AM,33.8,23.0,65,30.43,10.0,Calm,Calm,-,N/A,,Clear,0,2012-11-16 06:32:00
12:53 AM,32.0,23.0,69,30.44,10.0,Calm,Calm,-,N/A,,Clear,0,2012-11-16 06:53:00
1:12 AM,30.2,23.0,75,30.44,10.0,Calm,Calm,-,N/A,,Clear,0,2012-11-16 07:12:00
1:32 AM,28.4,21.2,74,30.45,10.0,North,3.5,-,N/A,,Clear,350,2012-11-16 07:32:00
1:52 AM,28.4,21.2,74,30.46,10.0,NNW,4.6,-,N/A,,Clear,340,2012-11-16 07:52:00
2:12 AM,30.2,21.2,69,30.46,10.0,NW,3.5,-,N/A,,Clear,310,2012-11-16 08:12:00
2:33 AM,28.4,21.2,74,30.46,10.0,NNW,5.8,-,N/A,,Clear,330,2012-11-16 08:33:00
2:52 AM,28.4,21.2,74,30.46,10.0,WNW,4.6,-,N/A,,Clear,300,2012-11-16 08:52:00
3:12 AM,30.2,23.0,75,30.46,10.0,NW,4.6,-,N/A,,Clear,310,2012-11-16 09:12:00
3:33 AM,28.4,21.2,74,30.46,10.0,NW,5.8,-,N/A,,Clear,310,2012-11-16 09:33:00
3:52 AM,28.4,21.2,74,30.46,10.0,NW,4.6,-,N/A,,Clear,320,2012-11-16 09:52:00
4:12 AM,26.6,19.4,74,30.46,10.0,NNW,3.5,-,N/A,,Clear,330,2012-11-16 10:12:00
4:33 AM,28.4,21.2,74,30.46,10.0,Calm,Calm,-,N/A,,Clear,0,2012-11-16 10:33:00
4:52 AM,26.6,19.4,74,30.46,10.0,NNW,5.8,-,N/A,,Clear,330,2012-11-16 10:52:00
5:12 AM,24.8,19.4,80,30.47,10.0,NW,3.5,-,N/A,,Clear,320,2012-11-16 11:12:00
5:33 AM,23.0,17.6,80,30.47,10.0,NNW,4.6,-,N/A,,Clear,340,2012-11-16 11:33:00
5:52 AM,26.6,19.4,74,30.46,10.0,Calm,Calm,-,N/A,,Clear,0,2012-11-16 11:52:00
6:12 AM,26.6,21.2,80,30.46,10.0,WNW,3.5,-,N/A,,Clear,300,2012-11-16 12:12:00
6:33 AM,23.0,19.4,86,30.46,10.0,NW,4.6,-,N/A,,Clear,320,2012-11-16 12:33:00
6:52 AM,23.0,19.4,86,30.47,10.0,NW,5.8,-,N/A,,Clear,320,2012-11-16 12:52:00
7:12 AM,24.8,19.4,80,30.48,10.0,NNW,4.6,-,N/A,,Clear,330,2012-11-16 13:12:00
7:33 AM,26.6,21.2,80,30.48,10.0,NW,3.5,-,N/A,,Clear,310,2012-11-16 13:33:00
7:52 AM,26.6,19.4,74,30.48,10.0,NW,3.5,-,N/A,,Clear,320,2012-11-16 13:52:00
8:12 AM,28.4,23.0,80,30.49,10.0,NW,3.5,-,N/A,,Clear,320,2012-11-16 14:12:00
8:33 AM,28.4,21.2,74,30.49,10.0,Calm,Calm,-,N/A,,Clear,0,2012-11-16 14:33:00
8:52 AM,30.2,21.2,69,30.49,10.0,Calm,Calm,-,N/A,,Clear,0,2012-11-16 14:52:00
9:12 AM,32.0,21.2,64,30.49,10.0,Calm,Calm,-,N/A,,Clear,0,2012-11-16 15:12:00
9:33 AM,32.0,21.2,64,30.50,10.0,Calm,Calm,-,N/A,,Clear,0,2012-11-16 15:33:00
9:52 AM,32.0,21.2,64,30.50,10.0,Calm,Calm,-,N/A,,Clear,0,2012-11-16 15:52:00
10:12 AM,33.8,23.0,65,30.49,10.0,Calm,Calm,-,N/A,,Clear,0,2012-11-16 16:12:00
10:33 AM,33.8,23.0,65,30.50,10.0,Calm,Calm,-,N/A,,Clear,0,2012-11-16 16:33:00
10:52 AM,37.4,23.0,56,30.49,10.0,SE,3.5,-,N/A,,Clear,130,2012-11-16 16:52:00
11:12 AM,37.4,23.0,56,30.49,10.0,SE,4.6,-,N/A,,Clear,130,2012-11-16 17:12:00
11:33 AM,37.4,23.0,56,30.48,10.0,SE,4.6,-,N/A,,Clear,130,2012-11-16 17:33:00
11:52 AM,37.4,23.0,56,30.48,10.0,SSE,5.8,-,N/A,,Clear,150,2012-11-16 17:52:00
12:12 PM,39.2,23.0,52,30.47,10.0,Calm,Calm,-,N/A,,Clear,0,2012-11-16 18:12:00
12:33 PM,41.0,23.0,49,30.47,10.0,Calm,Calm,-,N/A,,Clear,0,2012-11-16 18:33:00
12:52 PM,41.0,23.0,49,30.47,10.0,Calm,Calm,-,N/A,,Clear,0,2012-11-16 18:52:00
1:12 PM,41.0,23.0,49,30.47,10.0,Calm,Calm,-,N/A,,Clear,0,2012-11-16 19:12:00
1:33 PM,42.8,24.8,49,30.46,10.0,Calm,Calm,-,N/A,,Clear,0,2012-11-16 19:33:00
1:52 PM,42.8,24.8,49,30.45,10.0,Calm,Calm,-,N/A,,Clear,0,2012-11-16 19:52:00
2:12 PM,44.6,26.6,49,30.44,10.0,SE,4.6,-,N/A,,Clear,140,2012-11-16 20:12:00
2:33 PM,44.6,26.6,49,30.43,10.0,SE,4.6,-,N/A,,Clear,130,2012-11-16 20:33:00
2:52 PM,44.6,26.6,49,30.43,10.0,ESE,3.5,-,N/A,,Clear,110,2012-11-16 20:52:00
3:12 PM,44.6,26.6,49,30.43,10.0,ESE,4.6,-,N/A,,Clear,120,2012-11-16 21:12:00
3:32 PM,42.8,26.6,53,30.43,10.0,SE,6.9,-,N/A,,Clear,130,2012-11-16 21:32:00
3:52 PM,41.0,26.6,57,30.43,10.0,SE,5.8,-,N/A,,Clear,130,2012-11-16 21:52:00
4:12 PM,39.2,26.6,61,30.43,10.0,SSE,4.6,-,N/A,,Clear,150,2012-11-16 22:12:00
4:33 PM,37.4,26.6,65,30.42,10.0,Calm,Calm,-,N/A,,Clear,0,2012-11-16 22:33:00
4:52 PM,37.4,26.6,65,30.42,10.0,Calm,Calm,-,N/A,,Clear,0,2012-11-16 22:52:00
5:12 PM,37.4,28.4,70,30.42,10.0,Calm,Calm,-,N/A,,Clear,0,2012-11-16 23:12:00
5:33 PM,35.6,26.6,70,30.41,10.0,SSE,3.5,-,N/A,,Clear,160,2012-11-16 23:33:00
5:52 PM,33.8,28.4,81,30.39,10.0,SSE,3.5,-,N/A,,Clear,160,2012-11-16 23:52:00
6:12 PM,37.4,28.4,70,30.39,10.0,SSE,3.5,-,N/A,,Clear,150,2012-11-17 00:12:00
6:33 PM,32.0,26.6,80,30.40,10.0,ESE,3.5,-,N/A,,Clear,120,2012-11-17 00:33:00
6:52 PM,33.8,28.4,81,30.40,10.0,Calm,Calm,-,N/A,,Clear,0,2012-11-17 00:52:00
7:12 PM,32.0,26.6,80,30.39,10.0,South,3.5,-,N/A,,Clear,190,2012-11-17 01:12:00
7:52 PM,32.0,26.6,80,30.39,10.0,Calm,Calm,-,N/A,,Clear,0,2012-11-17 01:52:00
8:12 PM,32.0,28.4,87,30.39,10.0,Calm,Calm,-,N/A,,Clear,0,2012-11-17 02:12:00
8:33 PM,30.2,26.6,86,30.39,10.0,Calm,Calm,-,N/A,,Clear,0,2012-11-17 02:33:00
8:52 PM,30.2,28.4,93,30.39,10.0,Calm,Calm,-,N/A,,Clear,0,2012-11-17 02:52:00
9:12 PM,30.2,26.6,86,30.39,10.0,Calm,Calm,-,N/A,,Clear,0,2012-11-17 03:12:00
9:52 PM,30.2,28.4,93,30.40,10.0,Calm,Calm,-,N/A,,Clear,0,2012-11-17 03:52:00
10:12 PM,28.4,26.6,93,30.40,7.0,Calm,Calm,-,N/A,,Clear,0,2012-11-17 04:12:00
10:33 PM,30.2,28.4,93,30.40,10.0,Calm,Calm,-,N/A,,Clear,0,2012-11-17 04:33:00
10:52 PM,30.2,28.4,93,30.40,10.0,Calm,Calm,-,N/A,,Clear,0,2012-11-17 04:52:00
11:12 PM,32.0,30.2,93,30.40,10.0,SSE,4.6,-,N/A,,Clear,150,2012-11-17 05:12:00
11:33 PM,32.0,30.2,93,30.41,10.0,SSE,3.5,-,N/A,,Clear,160,2012-11-17 05:33:00
11:52 PM,32.0,30.2,93,30.41,10.0,South,3.5,-,N/A,,Clear,170,2012-11-17 05:52:00